Time;durP1;ratioP1;P1;durP2;ratioP2;P2;SDS_P1;SDS_P2;PMS_P1;PMS_P2;Temp;Humidity;BMP_temperature;BMP_pressure;BME280_temperature;BME280_humidity;BME280_pressure;Samples;Min_cycle;Max_cycle;Signal;HPM_P1;HPM_P2
2022/10/12 00:00:20;;;;;;;136.32;6.68;;;;;;;;;;4949123;28;20862;-64
2022/10/12 00:02:47;;;;;;;55.55;4.18;;;;;;;;;;4982101;28;20125;-64
2022/10/12 00:05:13;;;;;;;71.03;4.35;;;;;;;;;;4963161;28;20047;-64
2022/10/12 00:07:39;;;;;;;84.65;5.32;;;;;;;;;;4981749;28;20112;-64
2022/10/12 00:10:05;;;;;;;101.78;6.03;;;;;;;;;;4986337;28;20085;-64
2022/10/12 00:12:31;;;;;;;76.78;5.05;;;;;;;;;;4978466;28;20038;-64
2022/10/12 00:14:57;;;;;;;46.95;4.35;;;;;;;;;;4983633;28;20042;-64
2022/10/12 00:17:24;;;;;;;4.60;2.15;;;;;;;;;;4982076;28;20109;-65
2022/10/12 00:19:50;;;;;;;4.38;2.38;;;;;;;;;;4983006;28;20053;-64
2022/10/12 00:22:16;;;;;;;4.57;2.25;;;;;;;;;;4980871;28;20137;-64
2022/10/12 00:24:42;;;;;;;6.55;2.70;;;;;;;;;;4981299;28;20084;-64
2022/10/12 00:27:08;;;;;;;5.22;2.33;;;;;;;;;;4984942;28;20049;-64
2022/10/12 00:29:35;;;;;;;5.03;2.40;;;;;;;;;;4979289;28;20100;-64
2022/10/12 00:32:01;;;;;;;5.57;2.00;;;;;;;;;;4984750;28;20046;-64
2022/10/12 00:34:27;;;;;;;5.85;2.05;;;;;;;;;;4982604;28;20050;-64
2022/10/12 00:36:54;;;;;;;5.00;2.45;;;;;;;;;;4982537;28;20038;-64
2022/10/12 00:39:21;;;;;;;4.40;2.38;;;;;;;;;;4983620;28;20053;-64
2022/10/12 00:41:47;;;;;;;7.00;2.58;;;;;;;;;;4980281;28;20056;-64
2022/10/12 00:44:45;;;;;;;7.53;2.50;;;;;;;;;;4978569;28;20142;-64
2022/10/12 00:47:16;;;;;;;7.20;2.40;;;;;;;;;;4980130;28;20061;-64
2022/10/12 00:49:43;;;;;;;6.10;2.45;;;;;;;;;;4974260;28;20688;-64
2022/10/12 00:52:11;;;;;;;4.47;2.45;;;;;;;;;;4980391;28;20046;-64
2022/10/12 00:54:40;;;;;;;6.20;2.20;;;;;;;;;;4979768;28;20061;-64
2022/10/12 00:57:07;;;;;;;8.27;4.40;;;;;;;;;;4977238;28;20129;-64
2022/10/12 00:59:39;;;;;;;13.07;4.82;;;;;;;;;;4974613;28;20047;-64
2022/10/12 01:02:05;;;;;;;8.57;4.22;;;;;;;;;;4976521;28;20069;-64
2022/10/12 01:04:32;;;;;;;11.90;3.90;;;;;;;;;;4975257;28;20056;-64
2022/10/12 01:06:59;;;;;;;8.27;2.92;;;;;;;;;;4981967;28;20042;-64
2022/10/12 01:09:26;;;;;;;5.95;2.30;;;;;;;;;;4978340;28;20046;-64
2022/10/12 01:11:52;;;;;;;12.93;2.45;;;;;;;;;;4973252;28;20054;-64
2022/10/12 01:14:19;;;;;;;3.50;1.90;;;;;;;;;;4978569;28;20118;-64
2022/10/12 01:16:49;;;;;;;4.25;1.77;;;;;;;;;;4982041;28;20426;-64
2022/10/12 01:19:33;;;;;;;3.42;1.80;;;;;;;;;;4977181;28;21179;-64
2022/10/12 01:22:03;;;;;;;10.27;2.53;;;;;;;;;;4976074;28;20050;-63
2022/10/12 01:24:29;;;;;;;9.60;2.67;;;;;;;;;;4981473;28;20042;-64
2022/10/12 01:27:01;;;;;;;16.60;3.95;;;;;;;;;;4981565;28;20137;-64
2022/10/12 01:29:29;;;;;;;9.25;3.15;;;;;;;;;;4981096;28;20073;-64
2022/10/12 01:32:06;;;;;;;33.97;4.63;;;;;;;;;;4980795;28;20117;-64
2022/10/12 01:34:39;;;;;;;17.63;3.95;;;;;;;;;;4982084;28;20078;-64
2022/10/12 01:37:20;;;;;;;17.40;4.00;;;;;;;;;;4983098;28;20085;-64
2022/10/12 01:39:52;;;;;;;8.88;5.28;;;;;;;;;;4979298;28;20072;-64
2022/10/12 01:42:23;;;;;;;14.02;5.95;;;;;;;;;;4979008;28;20109;-64
2022/10/12 01:44:49;;;;;;;23.35;7.90;;;;;;;;;;4982295;28;20049;-64
2022/10/12 01:47:15;;;;;;;15.80;8.30;;;;;;;;;;4980528;28;20156;-64
2022/10/12 01:49:41;;;;;;;18.85;8.45;;;;;;;;;;4980619;28;20166;-63
2022/10/12 01:52:18;;;;;;;15.57;8.65;;;;;;;;;;4978737;28;20042;-64
2022/10/12 01:54:45;;;;;;;20.50;8.57;;;;;;;;;;4977554;28;20160;-64
2022/10/12 01:57:30;;;;;;;19.35;9.10;;;;;;;;;;4977263;28;21758;-64
2022/10/12 02:00:09;;;;;;;21.17;9.10;;;;;;;;;;4977499;28;20138;-64
2022/10/12 02:02:44;;;;;;;19.92;9.27;;;;;;;;;;4977490;28;20422;-64
2022/10/12 02:05:18;;;;;;;26.40;8.70;;;;;;;;;;4976669;28;20887;-63
2022/10/12 02:07:49;;;;;;;17.75;8.82;;;;;;;;;;4976058;28;20583;-64
2022/10/12 02:10:17;;;;;;;20.27;8.07;;;;;;;;;;4978354;28;20640;-64
2022/10/12 02:12:44;;;;;;;16.52;7.80;;;;;;;;;;4979336;28;20951;-64
2022/10/12 02:15:12;;;;;;;20.92;8.35;;;;;;;;;;4978650;28;20054;-64
2022/10/12 02:17:41;;;;;;;20.25;8.90;;;;;;;;;;4977812;28;20483;-64
2022/10/12 02:20:08;;;;;;;22.20;8.23;;;;;;;;;;4978911;28;20042;-64
2022/10/12 02:22:38;;;;;;;13.90;7.57;;;;;;;;;;4975330;28;20050;-64
2022/10/12 02:25:06;;;;;;;14.52;8.20;;;;;;;;;;4975731;28;20046;-64
2022/10/12 02:27:34;;;;;;;19.95;7.57;;;;;;;;;;4981433;28;20121;-64
2022/10/12 02:30:00;;;;;;;16.63;8.55;;;;;;;;;;4978783;28;20058;-64
2022/10/12 02:32:30;;;;;;;20.90;7.93;;;;;;;;;;4977863;28;20056;-64
2022/10/12 02:34:57;;;;;;;16.45;8.00;;;;;;;;;;4973667;28;20064;-64
2022/10/12 02:37:27;;;;;;;18.10;7.40;;;;;;;;;;4978254;28;20052;-64
2022/10/12 02:39:54;;;;;;;19.90;7.50;;;;;;;;;;4975896;28;20043;-64
2022/10/12 02:42:25;;;;;;;12.38;7.55;;;;;;;;;;4975946;28;20101;-64
2022/10/12 02:44:53;;;;;;;15.93;8.55;;;;;;;;;;4977949;28;20487;-64
2022/10/12 02:47:20;;;;;;;18.13;7.38;;;;;;;;;;4979803;28;20661;-64
2022/10/12 02:49:47;;;;;;;16.05;8.75;;;;;;;;;;4977048;28;20521;-64
2022/10/12 02:52:13;;;;;;;14.60;7.93;;;;;;;;;;4976598;28;20075;-64
2022/10/12 02:54:39;;;;;;;27.13;8.98;;;;;;;;;;4976817;28;20056;-64
2022/10/12 02:57:06;;;;;;;20.25;8.10;;;;;;;;;;4975565;28;20069;-64
2022/10/12 02:59:32;;;;;;;19.48;7.70;;;;;;;;;;4975773;28;20046;-64
2022/10/12 03:01:58;;;;;;;18.98;7.78;;;;;;;;;;4982055;28;20046;-64
2022/10/12 03:04:24;;;;;;;20.10;7.95;;;;;;;;;;4977485;28;20061;-64
2022/10/12 03:06:50;;;;;;;25.27;9.05;;;;;;;;;;4981470;28;20121;-64
2022/10/12 03:09:17;;;;;;;21.27;8.20;;;;;;;;;;4982278;28;20336;-64
2022/10/12 03:11:43;;;;;;;19.50;7.75;;;;;;;;;;4988625;28;20065;-64
2022/10/12 03:14:11;;;;;;;20.17;8.27;;;;;;;;;;4986041;28;20145;-64
2022/10/12 03:16:37;;;;;;;21.05;8.52;;;;;;;;;;4983864;28;20141;-64
2022/10/12 03:19:03;;;;;;;14.77;7.13;;;;;;;;;;4991403;28;20050;-64
2022/10/12 03:21:29;;;;;;;18.95;7.47;;;;;;;;;;4972014;28;20058;-64
2022/10/12 03:23:56;;;;;;;16.17;7.75;;;;;;;;;;4985913;28;20113;-64
2022/10/12 03:26:22;;;;;;;21.48;8.93;;;;;;;;;;4969686;28;20081;-64
2022/10/12 03:28:48;;;;;;;18.73;7.80;;;;;;;;;;4986243;28;20061;-64
2022/10/12 03:31:14;;;;;;;19.30;7.50;;;;;;;;;;4987994;28;20082;-64
2022/10/12 03:33:40;;;;;;;20.20;7.90;;;;;;;;;;4970492;28;20054;-64
2022/10/12 03:36:06;;;;;;;25.88;8.18;;;;;;;;;;4967488;28;20426;-64
2022/10/12 03:38:33;;;;;;;18.40;7.97;;;;;;;;;;4968676;28;20137;-64
2022/10/12 03:40:59;;;;;;;17.20;8.13;;;;;;;;;;4967055;28;20150;-64
2022/10/12 03:43:25;;;;;;;18.92;8.15;;;;;;;;;;4969392;28;20042;-64
2022/10/12 03:45:51;;;;;;;22.27;8.98;;;;;;;;;;4986204;28;20502;-64
2022/10/12 03:48:17;;;;;;;21.05;8.40;;;;;;;;;;4986087;28;20097;-64
2022/10/12 03:50:48;;;;;;;22.83;8.77;;;;;;;;;;4983463;28;20584;-64
2022/10/12 03:53:14;;;;;;;20.25;8.65;;;;;;;;;;4980512;28;20046;-64
2022/10/12 03:55:40;;;;;;;21.67;8.18;;;;;;;;;;4961897;28;20046;-64
2022/10/12 03:58:06;;;;;;;15.23;7.10;;;;;;;;;;4982191;28;20063;-64
2022/10/12 04:00:32;;;;;;;22.75;7.20;;;;;;;;;;4965093;28;21131;-64
2022/10/12 04:02:58;;;;;;;14.43;6.32;;;;;;;;;;4983437;28;20530;-64
2022/10/12 04:05:25;;;;;;;26.58;8.90;;;;;;;;;;4984431;28;20268;-64
2022/10/12 04:07:51;;;;;;;23.73;8.63;;;;;;;;;;4982746;28;20159;-64
2022/10/12 04:10:17;;;;;;;17.58;7.40;;;;;;;;;;4974293;28;20069;-64
2022/10/12 04:12:43;;;;;;;17.67;7.50;;;;;;;;;;4936724;28;20063;-64
2022/10/12 04:15:09;;;;;;;18.80;6.95;;;;;;;;;;4958342;28;20054;-64
2022/10/12 04:17:36;;;;;;;19.80;6.97;;;;;;;;;;4962028;28;20089;-64
2022/10/12 04:20:02;;;;;;;19.63;7.07;;;;;;;;;;4941694;28;20463;-64
2022/10/12 04:22:28;;;;;;;18.23;7.22;;;;;;;;;;4962714;28;20042;-64
2022/10/12 04:24:54;;;;;;;16.08;6.68;;;;;;;;;;4961630;28;20158;-64
2022/10/12 04:27:21;;;;;;;24.00;7.78;;;;;;;;;;4963174;28;20074;-64
2022/10/12 04:29:47;;;;;;;19.23;8.25;;;;;;;;;;4960172;28;20106;-64
2022/10/12 04:32:13;;;;;;;18.73;7.35;;;;;;;;;;4962367;28;20385;-64
2022/10/12 04:34:39;;;;;;;16.42;7.65;;;;;;;;;;4959816;28;20050;-64
2022/10/12 04:37:05;;;;;;;19.35;7.40;;;;;;;;;;4960318;28;20053;-64
2022/10/12 04:39:32;;;;;;;16.27;7.05;;;;;;;;;;4958438;28;20518;-64
2022/10/12 04:41:58;;;;;;;15.73;7.25;;;;;;;;;;4942207;28;20055;-64
2022/10/12 04:44:24;;;;;;;21.67;7.50;;;;;;;;;;4958193;28;20050;-64
2022/10/12 04:46:51;;;;;;;17.50;7.88;;;;;;;;;;4941428;28;20039;-64
2022/10/12 04:49:17;;;;;;;20.48;7.43;;;;;;;;;;4959995;28;20046;-64
2022/10/12 04:51:43;;;;;;;18.38;7.13;;;;;;;;;;4960025;28;20073;-64
2022/10/12 04:54:09;;;;;;;20.75;7.47;;;;;;;;;;4946113;28;20054;-64
2022/10/12 04:56:36;;;;;;;28.30;7.68;;;;;;;;;;4962161;28;20446;-64
2022/10/12 04:59:02;;;;;;;23.55;7.00;;;;;;;;;;4958690;28;20045;-64
2022/10/12 05:01:28;;;;;;;19.38;7.13;;;;;;;;;;4957652;28;20073;-64
2022/10/12 05:03:54;;;;;;;15.35;6.78;;;;;;;;;;4958703;28;20465;-64
2022/10/12 05:06:21;;;;;;;15.82;7.25;;;;;;;;;;4941668;28;20486;-64
2022/10/12 05:08:47;;;;;;;18.65;6.65;;;;;;;;;;4942266;28;20415;-64
2022/10/12 05:11:13;;;;;;;15.40;6.32;;;;;;;;;;4965922;28;20050;-64
2022/10/12 05:13:39;;;;;;;18.63;7.07;;;;;;;;;;4982351;28;20077;-64
2022/10/12 05:16:05;;;;;;;16.30;7.28;;;;;;;;;;4980637;28;20046;-64
2022/10/12 05:18:32;;;;;;;22.92;7.40;;;;;;;;;;4978032;28;20109;-64
2022/10/12 05:20:58;;;;;;;20.10;7.05;;;;;;;;;;4979421;28;20041;-64
2022/10/12 05:23:24;;;;;;;16.40;6.75;;;;;;;;;;4980030;28;20398;-64
2022/10/12 05:25:50;;;;;;;23.23;6.43;;;;;;;;;;4978203;28;21957;-64
2022/10/12 05:28:16;;;;;;;18.67;7.03;;;;;;;;;;4977357;28;20058;-64
2022/10/12 05:30:42;;;;;;;15.68;6.30;;;;;;;;;;4973421;28;20051;-64
2022/10/12 05:33:09;;;;;;;18.52;6.82;;;;;;;;;;4978738;28;20066;-64
2022/10/12 05:35:35;;;;;;;20.48;6.70;;;;;;;;;;4979984;28;20053;-64
2022/10/12 05:38:01;;;;;;;22.05;6.70;;;;;;;;;;4979001;28;20617;-64
2022/10/12 05:40:27;;;;;;;17.17;5.90;;;;;;;;;;4981016;28;20149;-64
2022/10/12 05:42:53;;;;;;;25.13;7.22;;;;;;;;;;4979917;28;20065;-70
2022/10/12 05:45:19;;;;;;;14.68;5.95;;;;;;;;;;4980019;28;20054;-64
2022/10/12 05:47:45;;;;;;;18.90;6.63;;;;;;;;;;4981109;28;20042;-64
2022/10/12 05:50:12;;;;;;;19.85;6.40;;;;;;;;;;4984012;28;20390;-64
2022/10/12 05:52:38;;;;;;;15.82;5.43;;;;;;;;;;4982637;28;20130;-66
2022/10/12 05:55:04;;;;;;;17.88;6.57;;;;;;;;;;4982872;28;20105;-63
2022/10/12 05:57:30;;;;;;;19.00;6.15;;;;;;;;;;4984277;28;20379;-64
2022/10/12 05:59:57;;;;;;;15.15;5.85;;;;;;;;;;4982805;28;20208;-64
2022/10/12 06:02:23;;;;;;;23.60;7.22;;;;;;;;;;4981512;28;20111;-64
2022/10/12 06:04:49;;;;;;;13.43;6.40;;;;;;;;;;4981065;28;20301;-64
2022/10/12 06:07:15;;;;;;;15.48;6.55;;;;;;;;;;4983196;28;20042;-65
2022/10/12 06:09:43;;;;;;;20.83;6.97;;;;;;;;;;4979093;28;20073;-64
2022/10/12 06:12:09;;;;;;;20.63;7.47;;;;;;;;;;4960177;28;20051;-64
2022/10/12 06:14:35;;;;;;;17.73;7.32;;;;;;;;;;4944892;28;20526;-64
2022/10/12 06:17:02;;;;;;;19.45;7.03;;;;;;;;;;4963813;28;20051;-64
2022/10/12 06:19:28;;;;;;;21.60;7.13;;;;;;;;;;4945029;28;20046;-64
2022/10/12 06:21:54;;;;;;;24.25;7.53;;;;;;;;;;4961486;28;20042;-64
2022/10/12 06:24:20;;;;;;;16.17;7.15;;;;;;;;;;4965029;28;20162;-64
2022/10/12 06:26:46;;;;;;;22.25;7.65;;;;;;;;;;4963635;28;20099;-64
2022/10/12 06:29:13;;;;;;;25.38;8.23;;;;;;;;;;4930184;28;20051;-64
2022/10/12 06:31:39;;;;;;;22.70;8.25;;;;;;;;;;4945764;28;20061;-64
2022/10/12 06:34:05;;;;;;;29.90;8.13;;;;;;;;;;4941094;28;20058;-63
2022/10/12 06:36:31;;;;;;;19.88;8.13;;;;;;;;;;4970600;28;20130;-64
2022/10/12 06:38:57;;;;;;;22.67;8.77;;;;;;;;;;4970123;28;20043;-64
2022/10/12 06:41:24;;;;;;;21.50;8.98;;;;;;;;;;4968923;28;20039;-63
2022/10/12 06:43:50;;;;;;;21.98;9.90;;;;;;;;;;4950342;28;20051;-64
2022/10/12 06:46:16;;;;;;;20.45;8.73;;;;;;;;;;4973162;28;20122;-63
2022/10/12 06:48:42;;;;;;;27.52;9.82;;;;;;;;;;4969993;28;20105;-63
2022/10/12 06:51:08;;;;;;;34.63;11.82;;;;;;;;;;4972992;28;20074;-63
2022/10/12 06:53:35;;;;;;;23.10;9.38;;;;;;;;;;4968492;28;20349;-64
2022/10/12 06:56:05;;;;;;;29.10;10.57;;;;;;;;;;4953486;28;20047;-64
2022/10/12 06:58:32;;;;;;;28.30;10.90;;;;;;;;;;4952569;28;20054;-64
2022/10/12 07:01:00;;;;;;;23.25;10.65;;;;;;;;;;4967023;28;20372;-64
2022/10/12 07:03:27;;;;;;;26.80;11.38;;;;;;;;;;4969245;28;20046;-63
2022/10/12 07:05:53;;;;;;;34.65;12.27;;;;;;;;;;4969329;28;20049;-64
2022/10/12 07:08:19;;;;;;;25.38;13.07;;;;;;;;;;4958262;28;20109;-63
2022/10/12 07:10:45;;;;;;;21.05;11.73;;;;;;;;;;4969307;28;20069;-64
2022/10/12 07:13:11;;;;;;;24.23;11.02;;;;;;;;;;4981954;28;20058;-64
2022/10/12 07:15:37;;;;;;;23.98;11.40;;;;;;;;;;4984688;28;20041;-64
2022/10/12 07:18:04;;;;;;;29.05;12.10;;;;;;;;;;4986957;28;20104;-64
2022/10/12 07:20:30;;;;;;;28.08;11.63;;;;;;;;;;4983182;28;20050;-64
2022/10/12 07:22:56;;;;;;;32.97;12.38;;;;;;;;;;4984482;28;20042;-63
2022/10/12 07:25:22;;;;;;;27.55;12.07;;;;;;;;;;4987115;28;20050;-66
2022/10/12 07:27:48;;;;;;;23.52;11.80;;;;;;;;;;4987754;28;20042;-65
2022/10/12 07:30:14;;;;;;;22.08;12.00;;;;;;;;;;4987542;28;20592;-66
2022/10/12 07:32:41;;;;;;;32.22;10.85;;;;;;;;;;4988744;28;20042;-66
2022/10/12 07:35:08;;;;;;;36.35;11.30;;;;;;;;;;4987008;28;20054;-66
2022/10/12 07:37:34;;;;;;;29.92;11.50;;;;;;;;;;4986590;28;20112;-66
2022/10/12 07:40:00;;;;;;;27.40;10.98;;;;;;;;;;4988836;28;20042;-65
2022/10/12 07:42:26;;;;;;;21.05;10.55;;;;;;;;;;4987943;28;20034;-65
2022/10/12 07:44:52;;;;;;;36.80;10.50;;;;;;;;;;4987228;28;20038;-66
2022/10/12 07:47:18;;;;;;;27.25;10.10;;;;;;;;;;4986396;28;20042;-66
2022/10/12 07:49:46;;;;;;;21.08;9.23;;;;;;;;;;4987098;28;20070;-66
2022/10/12 07:52:12;;;;;;;28.42;10.02;;;;;;;;;;4986621;28;20050;-66
2022/10/12 07:54:38;;;;;;;21.35;8.52;;;;;;;;;;4987093;28;20098;-66
2022/10/12 07:57:04;;;;;;;20.90;8.88;;;;;;;;;;4985437;28;20096;-66
2022/10/12 07:59:30;;;;;;;18.33;8.00;;;;;;;;;;4982008;28;20050;-66
2022/10/12 08:01:56;;;;;;;23.60;8.00;;;;;;;;;;4987211;28;20924;-66
2022/10/12 08:04:23;;;;;;;32.17;8.20;;;;;;;;;;4984345;28;20502;-65
2022/10/12 08:06:49;;;;;;;26.55;7.95;;;;;;;;;;4983733;28;20046;-65
2022/10/12 08:09:15;;;;;;;16.98;7.45;;;;;;;;;;4982929;28;20050;-64
2022/10/12 08:11:41;;;;;;;16.77;7.30;;;;;;;;;;4964329;28;20137;-64
2022/10/12 08:14:12;;;;;;;22.45;7.30;;;;;;;;;;4944120;28;20054;-64
2022/10/12 08:16:39;;;;;;;19.10;7.10;;;;;;;;;;4946797;28;20126;-64
2022/10/12 08:19:05;;;;;;;19.30;6.68;;;;;;;;;;4966867;28;20078;-64
2022/10/12 08:21:31;;;;;;;20.15;6.82;;;;;;;;;;4945781;28;20046;-64
2022/10/12 08:23:57;;;;;;;22.33;6.70;;;;;;;;;;4931073;28;20051;-64
2022/10/12 08:26:24;;;;;;;18.85;6.97;;;;;;;;;;4965179;28;20450;-64
2022/10/12 08:28:50;;;;;;;21.85;7.05;;;;;;;;;;4960166;28;20145;-65
2022/10/12 08:31:16;;;;;;;19.25;7.57;;;;;;;;;;4965478;28;20046;-65
2022/10/12 08:33:43;;;;;;;23.42;6.68;;;;;;;;;;4963434;28;20082;-62
2022/10/12 08:36:10;;;;;;;14.95;5.30;;;;;;;;;;4962555;28;20078;-64
2022/10/12 08:38:38;;;;;;;19.30;5.18;;;;;;;;;;4946363;28;20562;-64
2022/10/12 08:41:13;;;;;;;21.27;5.45;;;;;;;;;;4964368;28;20054;-64
2022/10/12 08:43:48;;;;;;;22.10;6.57;;;;;;;;;;4962700;28;20051;-64
2022/10/12 08:46:17;;;;;;;27.30;6.38;;;;;;;;;;4959814;28;20430;-64
2022/10/12 08:48:49;;;;;;;18.30;5.85;;;;;;;;;;4961860;28;20046;-64
2022/10/12 08:51:18;;;;;;;19.58;4.88;;;;;;;;;;4960567;28;20146;-64
2022/10/12 08:53:47;;;;;;;14.07;5.25;;;;;;;;;;4964674;28;20050;-64
2022/10/12 08:56:20;;;;;;;13.48;5.68;;;;;;;;;;4961395;28;20051;-64
2022/10/12 08:58:47;;;;;;;18.13;5.28;;;;;;;;;;4961507;28;20193;-64
2022/10/12 09:01:29;;;;;;;17.85;5.30;;;;;;;;;;4962263;28;20050;-64
2022/10/12 09:04:11;;;;;;;17.92;5.28;;;;;;;;;;4961792;28;20117;-64
2022/10/12 09:06:37;;;;;;;20.73;5.07;;;;;;;;;;4959930;28;20376;-64
2022/10/12 09:09:19;;;;;;;17.30;5.68;;;;;;;;;;4963168;28;20046;-64
2022/10/12 09:11:45;;;;;;;13.65;4.80;;;;;;;;;;4974843;28;20164;-64
2022/10/12 09:14:17;;;;;;;14.73;4.65;;;;;;;;;;4982571;28;20042;-63
2022/10/12 09:16:45;;;;;;;17.15;4.05;;;;;;;;;;4979412;28;20201;-63
2022/10/12 09:19:16;;;;;;;13.75;4.25;;;;;;;;;;4982231;28;20051;-65
2022/10/12 09:21:44;;;;;;;14.02;4.30;;;;;;;;;;4966246;28;20417;-64
2022/10/12 09:24:34;;;;;;;16.17;4.78;;;;;;;;;;4995380;28;20173;-65
2022/10/12 09:27:01;;;;;;;18.50;5.38;;;;;;;;;;4985400;28;20054;-64
2022/10/12 09:29:28;;;;;;;18.17;5.00;;;;;;;;;;4987752;28;20181;-65
2022/10/12 09:32:15;;;;;;;21.90;5.82;;;;;;;;;;4986713;28;20563;-64
2022/10/12 09:34:42;;;;;;;15.43;4.97;;;;;;;;;;4982554;28;20402;-64
2022/10/12 09:37:13;;;;;;;17.60;4.70;;;;;;;;;;4984698;28;20425;-64
2022/10/12 09:39:39;;;;;;;16.30;4.35;;;;;;;;;;4985135;28;20053;-64
2022/10/12 09:42:05;;;;;;;16.10;5.25;;;;;;;;;;4987055;28;20395;-64
2022/10/12 09:44:32;;;;;;;12.63;4.80;;;;;;;;;;4985215;28;20053;-65
2022/10/12 09:47:00;;;;;;;19.05;5.05;;;;;;;;;;4985102;28;20402;-65
2022/10/12 09:49:39;;;;;;;15.27;4.47;;;;;;;;;;4986980;28;20046;-64
2022/10/12 09:52:06;;;;;;;18.25;4.60;;;;;;;;;;4986210;28;20121;-64
2022/10/12 09:54:32;;;;;;;16.88;4.63;;;;;;;;;;4986933;28;20061;-64
2022/10/12 09:56:58;;;;;;;16.42;5.05;;;;;;;;;;4986229;28;20063;-65
2022/10/12 09:59:30;;;;;;;16.50;4.07;;;;;;;;;;4982443;28;20509;-65
2022/10/12 10:01:57;;;;;;;15.65;3.75;;;;;;;;;;4986659;28;20035;-64
2022/10/12 10:04:24;;;;;;;19.23;5.03;;;;;;;;;;4986109;28;20042;-64
2022/10/12 10:06:50;;;;;;;20.38;4.93;;;;;;;;;;4986400;28;20058;-64
2022/10/12 10:09:27;;;;;;;18.33;4.05;;;;;;;;;;4983828;28;20410;-64
2022/10/12 10:11:53;;;;;;;24.05;5.15;;;;;;;;;;4985833;28;20054;-64
2022/10/12 10:14:20;;;;;;;17.50;4.55;;;;;;;;;;4986033;28;20422;-64
2022/10/12 10:16:48;;;;;;;18.65;4.60;;;;;;;;;;4985144;28;20035;-64
2022/10/12 10:19:17;;;;;;;12.77;3.72;;;;;;;;;;4984478;28;20569;-64
2022/10/12 10:21:44;;;;;;;16.88;4.13;;;;;;;;;;4986181;28;20054;-64
2022/10/12 10:24:21;;;;;;;14.75;4.00;;;;;;;;;;4981125;28;20069;-64
2022/10/12 10:26:56;;;;;;;19.63;4.28;;;;;;;;;;4982958;28;20053;-64
2022/10/12 10:29:30;;;;;;;16.83;4.03;;;;;;;;;;4986206;28;20808;-65
2022/10/12 10:32:25;;;;;;;21.35;4.05;;;;;;;;;;4986065;28;20046;-64
2022/10/12 10:35:11;;;;;;;18.08;3.58;;;;;;;;;;4985217;28;20053;-64
2022/10/12 10:37:56;;;;;;;14.25;3.65;;;;;;;;;;4984775;28;20082;-64
2022/10/12 10:40:41;;;;;;;13.70;3.72;;;;;;;;;;4985439;28;20493;-64
2022/10/12 10:43:27;;;;;;;20.95;3.70;;;;;;;;;;4984489;28;20033;-64
2022/10/12 10:46:12;;;;;;;13.90;3.72;;;;;;;;;;4984399;28;20042;-64
2022/10/12 10:48:50;;;;;;;13.93;2.78;;;;;;;;;;4984789;28;20042;-64
2022/10/12 10:51:16;;;;;;;16.38;2.90;;;;;;;;;;4986995;28;20049;-64
2022/10/12 10:53:44;;;;;;;18.85;3.72;;;;;;;;;;4984216;28;20042;-64
2022/10/12 10:56:14;;;;;;;12.57;2.95;;;;;;;;;;4983843;28;20041;-65
2022/10/12 10:58:42;;;;;;;12.70;3.10;;;;;;;;;;4981882;28;20046;-65
2022/10/12 11:01:17;;;;;;;15.85;3.20;;;;;;;;;;4987368;28;20046;-65
2022/10/12 11:03:49;;;;;;;9.95;3.55;;;;;;;;;;4983995;28;20438;-64
2022/10/12 11:06:29;;;;;;;15.75;3.80;;;;;;;;;;4985860;28;20073;-65
2022/10/12 11:08:59;;;;;;;13.38;3.10;;;;;;;;;;4987598;28;20438;-65
2022/10/12 11:11:27;;;;;;;12.70;3.15;;;;;;;;;;4987823;28;20516;-65
2022/10/12 11:13:57;;;;;;;15.15;3.53;;;;;;;;;;4987430;28;20057;-65
2022/10/12 11:16:27;;;;;;;16.52;3.35;;;;;;;;;;4987608;28;20054;-65
2022/10/12 11:18:56;;;;;;;15.43;3.15;;;;;;;;;;4986167;28;20137;-65
2022/10/12 11:21:26;;;;;;;12.57;3.47;;;;;;;;;;4980946;28;20043;-65
2022/10/12 11:23:56;;;;;;;14.52;3.30;;;;;;;;;;4989201;28;20042;-65
2022/10/12 11:26:29;;;;;;;11.35;2.53;;;;;;;;;;4986893;28;20074;-65
2022/10/12 11:28:58;;;;;;;12.65;3.60;;;;;;;;;;4985893;28;20046;-65
2022/10/12 11:31:28;;;;;;;13.77;3.10;;;;;;;;;;5002902;28;20473;-65
2022/10/12 11:33:56;;;;;;;10.93;3.28;;;;;;;;;;4986824;28;20048;-65
2022/10/12 11:36:24;;;;;;;18.95;4.25;;;;;;;;;;4988317;28;20080;-63
2022/10/12 11:38:53;;;;;;;13.18;3.55;;;;;;;;;;4988680;28;20038;-62
2022/10/12 11:41:21;;;;;;;19.23;3.65;;;;;;;;;;4988818;28;20054;-65
2022/10/12 11:43:55;;;;;;;11.15;3.28;;;;;;;;;;4986574;28;20053;-63
2022/10/12 11:46:30;;;;;;;13.05;3.22;;;;;;;;;;4986346;28;20037;-62
2022/10/12 11:49:01;;;;;;;11.48;2.90;;;;;;;;;;4987662;28;20043;-63
2022/10/12 11:51:27;;;;;;;12.32;2.60;;;;;;;;;;4987890;28;20133;-63
2022/10/12 11:53:58;;;;;;;10.13;2.63;;;;;;;;;;4985642;28;20050;-63
2022/10/12 11:56:27;;;;;;;13.15;3.35;;;;;;;;;;4987669;28;20418;-63
2022/10/12 11:58:58;;;;;;;11.85;2.60;;;;;;;;;;4986837;28;20058;-63
2022/10/12 12:01:24;;;;;;;19.67;3.92;;;;;;;;;;4985268;28;20402;-63
2022/10/12 12:04:02;;;;;;;16.48;3.38;;;;;;;;;;4985523;28;20054;-63
2022/10/12 12:06:28;;;;;;;11.88;2.97;;;;;;;;;;4985973;28;20046;-63
2022/10/12 12:08:54;;;;;;;11.10;2.35;;;;;;;;;;4986824;28;20050;-63
2022/10/12 12:11:20;;;;;;;13.80;3.67;;;;;;;;;;4989211;28;20494;-63
2022/10/12 12:13:46;;;;;;;16.08;3.55;;;;;;;;;;4982890;28;20058;-63
2022/10/12 12:16:13;;;;;;;14.65;3.33;;;;;;;;;;4986397;28;20043;-63
2022/10/12 12:18:58;;;;;;;15.15;3.08;;;;;;;;;;4986132;28;20120;-63
2022/10/12 12:21:24;;;;;;;13.43;3.38;;;;;;;;;;4986635;28;20096;-63
2022/10/12 12:23:53;;;;;;;17.77;3.20;;;;;;;;;;4987346;28;20042;-63
2022/10/12 12:26:20;;;;;;;12.27;2.63;;;;;;;;;;4986198;28;20046;-63
2022/10/12 12:28:47;;;;;;;11.73;3.53;;;;;;;;;;4987492;28;20164;-63
2022/10/12 12:31:16;;;;;;;13.48;2.88;;;;;;;;;;4987071;28;20050;-63
2022/10/12 12:33:45;;;;;;;11.50;2.58;;;;;;;;;;4983794;28;20100;-63
2022/10/12 12:36:14;;;;;;;12.68;3.10;;;;;;;;;;4986714;28;20683;-63
2022/10/12 12:38:45;;;;;;;15.05;2.90;;;;;;;;;;4987752;28;20042;-63
2022/10/12 12:41:13;;;;;;;10.48;3.22;;;;;;;;;;4986661;28;20046;-63
2022/10/12 12:43:48;;;;;;;10.38;2.70;;;;;;;;;;4987575;28;20104;-63
2022/10/12 12:46:15;;;;;;;12.98;2.85;;;;;;;;;;4984780;28;20050;-63
2022/10/12 12:48:41;;;;;;;11.88;3.03;;;;;;;;;;4985871;28;20405;-63
2022/10/12 12:51:10;;;;;;;12.40;3.20;;;;;;;;;;4987641;28;20042;-63
2022/10/12 12:53:39;;;;;;;14.88;3.50;;;;;;;;;;4987948;28;20394;-63
2022/10/12 12:56:07;;;;;;;13.30;3.47;;;;;;;;;;4988358;28;20050;-62
2022/10/12 12:58:53;;;;;;;15.27;2.80;;;;;;;;;;4985489;28;20038;-63
2022/10/12 13:01:20;;;;;;;11.02;2.53;;;;;;;;;;4984609;28;20062;-63
2022/10/12 13:03:47;;;;;;;14.98;3.03;;;;;;;;;;4987065;28;20469;-63
2022/10/12 13:06:32;;;;;;;14.93;2.78;;;;;;;;;;4987529;28;20054;-63
2022/10/12 13:09:15;;;;;;;11.85;3.13;;;;;;;;;;4984509;28;20394;-63
2022/10/12 13:11:41;;;;;;;13.55;3.30;;;;;;;;;;4985142;28;20081;-63
2022/10/12 13:14:20;;;;;;;14.52;3.38;;;;;;;;;;4986428;28;20498;-63
2022/10/12 13:16:56;;;;;;;13.15;3.05;;;;;;;;;;4986491;28;20514;-63
2022/10/12 13:19:23;;;;;;;11.80;2.85;;;;;;;;;;4984010;28;20066;-63
2022/10/12 13:21:51;;;;;;;15.32;3.40;;;;;;;;;;5001701;28;20061;-63
2022/10/12 13:24:18;;;;;;;13.35;3.10;;;;;;;;;;4982714;28;20043;-63
2022/10/12 13:26:46;;;;;;;13.23;3.22;;;;;;;;;;4985976;28;20053;-63
2022/10/12 13:29:19;;;;;;;19.15;4.25;;;;;;;;;;4985812;28;20115;-63
2022/10/12 13:31:47;;;;;;;14.88;3.08;;;;;;;;;;4989013;28;20054;-63
2022/10/12 13:34:14;;;;;;;16.77;3.25;;;;;;;;;;4987266;28;20035;-63
2022/10/12 13:36:48;;;;;;;11.60;3.67;;;;;;;;;;4984965;28;20057;-63
2022/10/12 13:39:14;;;;;;;;;;;;;;;;;;4987199;28;20042;-63
2022/10/12 13:41:40;;;;;;;15.07;3.05;;;;;;;;;;4986453;28;20008;-63
2022/10/12 13:44:07;;;;;;;10.55;2.78;;;;;;;;;;4982166;28;20398;-63
2022/10/12 13:46:42;;;;;;;16.85;4.15;;;;;;;;;;4985616;28;20122;-63
2022/10/12 13:49:20;;;;;;;15.13;3.92;;;;;;;;;;4986073;28;20042;-63
2022/10/12 13:51:48;;;;;;;13.73;3.35;;;;;;;;;;4983683;28;20129;-63
2022/10/12 13:54:16;;;;;;;16.15;4.32;;;;;;;;;;4986964;28;20407;-63
2022/10/12 13:56:42;;;;;;;11.60;3.45;;;;;;;;;;4986241;28;20045;-63
2022/10/12 13:59:17;;;;;;;11.65;3.67;;;;;;;;;;4983914;28;20058;-63
2022/10/12 14:01:51;;;;;;;13.77;3.42;;;;;;;;;;4987010;28;20491;-63
2022/10/12 14:04:17;;;;;;;14.20;3.92;;;;;;;;;;4983906;28;20038;-63
2022/10/12 14:06:46;;;;;;;15.07;3.03;;;;;;;;;;4986446;28;20038;-63
2022/10/12 14:09:20;;;;;;;13.00;2.97;;;;;;;;;;4986499;28;20050;-63
2022/10/12 14:11:47;;;;;;;9.60;3.33;;;;;;;;;;4985763;28;20058;-63
2022/10/12 14:14:18;;;;;;;13.20;2.50;;;;;;;;;;4985724;28;20100;-63
2022/10/12 14:16:44;;;;;;;10.90;2.95;;;;;;;;;;4986171;28;20046;-63
2022/10/12 14:19:18;;;;;;;12.25;2.90;;;;;;;;;;4985603;28;20050;-63
2022/10/12 14:21:46;;;;;;;10.70;2.83;;;;;;;;;;4985330;28;20061;-63
2022/10/12 14:24:18;;;;;;;10.90;3.00;;;;;;;;;;4984230;28;20051;-63
2022/10/12 14:26:51;;;;;;;19.20;3.30;;;;;;;;;;4984919;28;20054;-63
2022/10/12 14:29:28;;;;;;;14.17;2.70;;;;;;;;;;4986999;28;20394;-63
2022/10/12 14:31:55;;;;;;;12.88;2.90;;;;;;;;;;4982983;28;20635;-63
2022/10/12 14:34:22;;;;;;;10.90;2.35;;;;;;;;;;4985250;28;20038;-63
2022/10/12 14:36:58;;;;;;;9.48;2.85;;;;;;;;;;4984901;28;20050;-63
2022/10/12 14:39:25;;;;;;;17.90;3.58;;;;;;;;;;4982575;28;20058;-63